Time;durP1;ratioP1;P1;durP2;ratioP2;P2;SDS_P1;SDS_P2;PMS_P1;PMS_P2;Temp;Humidity;BMP_temperature;BMP_pressure;BME280_temperature;BME280_humidity;BME280_pressure;Samples;Min_cycle;Max_cycle;Signal;HPM_P1;HPM_P2
2021/10/07 00:02:08;;;;;;;39.35;17.75;;;11.20;95.50;;;;;;5073382;28;20064;-73
2021/10/07 00:04:33;;;;;;;27.73;17.58;;;11.20;95.50;;;;;;5056277;28;20120;-74
2021/10/07 00:06:59;;;;;;;40.85;19.58;;;11.20;95.60;;;;;;5084732;28;20023;-74
2021/10/07 00:09:25;;;;;;;28.40;15.05;;;11.30;95.60;;;;;;5089754;28;20405;-73
2021/10/07 00:11:51;;;;;;;35.13;19.10;;;11.20;95.50;;;;;;5065266;28;20024;-74
2021/10/07 00:14:17;;;;;;;32.83;18.67;;;11.20;95.50;;;;;;5073927;28;20052;-74
2021/10/07 00:16:43;;;;;;;28.65;18.00;;;11.20;95.50;;;;;;5073128;28;20461;-74
2021/10/07 00:19:08;;;;;;;42.78;18.63;;;11.20;95.50;;;;;;5071990;28;20028;-74
2021/10/07 00:21:34;;;;;;;32.40;16.92;;;11.20;95.40;;;;;;5073014;28;20028;-73
2021/10/07 00:24:09;;;;;;;33.67;17.80;;;11.20;95.40;;;;;;5072634;28;20145;-74
2021/10/07 00:26:37;;;;;;;27.67;16.00;;;11.10;95.30;;;;;;5073619;28;20020;-74
2021/10/07 00:31:40;;;;;;;26.63;17.13;;;11.10;95.20;;;;;;5078384;28;20094;-73
2021/10/07 00:34:24;;;;;;;31.92;18.70;;;11.10;95.20;;;;;;5054565;28;20021;-74
2021/10/07 00:39:34;;;;;;;27.27;17.73;;;11.10;95.30;;;;;;5072485;28;20114;-73
2021/10/07 00:42:00;;;;;;;27.15;18.58;;;11.10;95.40;;;;;;5072333;28;20384;-73
2021/10/07 00:44:32;;;;;;;21.55;15.27;;;11.10;95.40;;;;;;5054454;28;20024;-72
2021/10/07 00:47:01;;;;;;;29.13;17.58;;;11.10;95.40;;;;;;5072754;28;20036;-73
2021/10/07 00:49:29;;;;;;;28.75;15.90;;;11.20;95.50;;;;;;5072665;28;20031;-74
2021/10/07 00:51:55;;;;;;;23.55;15.40;;;11.10;95.30;;;;;;5072614;28;20029;-73
2021/10/07 00:54:23;;;;;;;27.50;16.52;;;11.10;95.20;;;;;;5076372;28;20563;-74
2021/10/07 00:56:49;;;;;;;33.72;16.15;;;11.10;95.20;;;;;;5062403;28;20035;-73
2021/10/07 00:59:15;;;;;;;26.38;15.00;;;11.10;95.20;;;;;;5072786;28;20059;-74
2021/10/07 01:01:40;;;;;;;53.15;16.42;;;11.10;95.20;;;;;;5054389;28;20056;-73
2021/10/07 01:04:06;;;;;;;57.47;18.13;;;11.10;95.20;;;;;;5072698;28;20036;-74
2021/10/07 01:06:32;;;;;;;59.85;18.48;;;11.10;95.20;;;;;;5054631;28;20028;-74
2021/10/07 01:08:59;;;;;;;52.58;17.65;;;11.20;95.20;;;;;;5072347;28;20100;-74
2021/10/07 01:11:25;;;;;;;56.35;18.25;;;11.20;95.30;;;;;;5072433;28;20028;-73
2021/10/07 01:13:51;;;;;;;42.22;16.92;;;11.20;95.30;;;;;;5071726;28;20024;-74
2021/10/07 01:16:17;;;;;;;32.90;16.75;;;11.20;95.30;;;;;;5071706;28;20025;-73
2021/10/07 01:18:47;;;;;;;45.10;17.42;;;11.20;95.30;;;;;;5072252;28;20028;-74
2021/10/07 01:21:15;;;;;;;43.67;18.05;;;11.30;95.30;;;;;;5072157;28;20033;-73
2021/10/07 01:23:42;;;;;;;72.97;20.52;;;11.30;95.40;;;;;;5072141;28;20165;-73
2021/10/07 01:26:10;;;;;;;44.53;19.80;;;11.30;95.30;;;;;;5071923;28;20108;-73
2021/10/07 01:28:47;;;;;;;40.72;18.67;;;11.30;95.40;;;;;;5073724;28;20028;-73
2021/10/07 01:31:13;;;;;;;44.22;17.83;;;11.30;95.30;;;;;;5086956;28;20025;-72
2021/10/07 01:33:39;;;;;;;60.63;17.70;;;11.30;95.40;;;;;;5094757;28;20032;-72
2021/10/07 01:36:06;;;;;;;42.28;16.98;;;11.30;95.40;;;;;;5083293;28;20036;-72
2021/10/07 01:38:31;;;;;;;32.30;15.98;;;11.30;95.50;;;;;;5094013;28;20024;-73
2021/10/07 01:40:57;;;;;;;17.23;13.82;;;11.30;95.50;;;;;;5076371;28;20027;-74
2021/10/07 01:43:23;;;;;;;20.77;14.07;;;11.30;95.60;;;;;;5075453;28;20128;-73
2021/10/07 01:45:51;;;;;;;19.85;14.40;;;11.30;95.60;;;;;;5075674;28;20025;-73
2021/10/07 01:48:17;;;;;;;37.17;14.50;;;11.30;95.50;;;;;;5075689;28;20115;-74
2021/10/07 01:50:44;;;;;;;28.27;12.68;;;11.30;95.50;;;;;;5075734;28;20056;-74
2021/10/07 01:53:10;;;;;;;50.85;13.30;;;11.20;95.50;;;;;;5075010;28;20414;-73
2021/10/07 01:55:36;;;;;;;16.50;11.23;;;11.20;95.50;;;;;;5057530;28;20054;-72
2021/10/07 01:58:02;;;;;;;48.88;11.32;;;11.20;95.40;;;;;;5076426;28;20024;-73
2021/10/07 02:00:28;;;;;;;34.97;9.85;;;11.20;95.40;;;;;;5080826;28;20066;-74
2021/10/07 02:02:56;;;;;;;23.65;9.63;;;11.20;95.40;;;;;;5095664;28;20029;-72
2021/10/07 02:05:22;;;;;;;31.27;10.43;;;11.20;95.30;;;;;;5096694;28;20036;-73
2021/10/07 02:07:47;;;;;;;27.70;10.68;;;11.10;95.30;;;;;;5075786;28;20032;-74
2021/10/07 02:10:17;;;;;;;36.13;12.38;;;11.10;95.30;;;;;;5075221;28;20029;-73
2021/10/07 02:12:44;;;;;;;26.98;11.35;;;11.00;95.20;;;;;;5057360;28;20041;-72
2021/10/07 02:15:10;;;;;;;21.02;10.32;;;11.00;95.10;;;;;;5074750;28;20346;-72
2021/10/07 02:17:36;;;;;;;17.45;9.45;;;10.90;95.00;;;;;;5075089;28;20507;-73
2021/10/07 02:20:03;;;;;;;53.08;10.43;;;10.90;95.00;;;;;;5074846;28;20488;-73
2021/10/07 02:22:29;;;;;;;14.63;9.00;;;10.90;95.00;;;;;;5074762;28;20100;-72
2021/10/07 02:24:54;;;;;;;20.05;10.43;;;10.80;95.00;;;;;;5074874;28;20120;-73
2021/10/07 02:27:20;;;;;;;20.25;9.82;;;10.90;95.10;;;;;;5075008;28;20036;-73
2021/10/07 02:29:45;;;;;;;21.52;8.93;;;10.80;95.00;;;;;;5074867;28;20469;-73
2021/10/07 02:32:11;;;;;;;47.95;10.07;;;10.80;95.00;;;;;;5074661;28;20031;-73
2021/10/07 02:34:36;;;;;;;180.63;14.77;;;10.80;95.00;;;;;;5074862;28;20385;-73
2021/10/07 02:37:02;;;;;;;78.20;10.85;;;10.70;95.00;;;;;;5074384;28;20023;-73
2021/10/07 02:39:28;;;;;;;121.25;11.80;;;10.70;95.00;;;;;;5074390;28;20470;-74
2021/10/07 02:41:54;;;;;;;133.10;12.50;;;10.70;95.10;;;;;;5073454;28;20109;-74
2021/10/07 02:44:19;;;;;;;179.93;14.98;;;10.70;95.20;;;;;;5074335;28;20035;-74
2021/10/07 02:46:45;;;;;;;333.70;19.30;;;10.70;95.30;;;;;;5074836;28;20024;-74
2021/10/07 02:49:10;;;;;;;52.78;9.55;;;10.70;95.30;;;;;;5073919;28;20530;-73
2021/10/07 02:51:36;;;;;;;147.00;14.75;;;10.70;95.30;;;;;;5074576;28;20044;-73
2021/10/07 02:54:01;;;;;;;118.60;11.93;;;10.80;95.40;;;;;;5074524;28;20100;-73
2021/10/07 02:56:27;;;;;;;178.55;13.90;;;10.80;95.40;;;;;;5059648;28;20029;-73
2021/10/07 02:58:53;;;;;;;163.45;14.80;;;10.80;95.40;;;;;;5091741;28;20021;-73
2021/10/07 03:01:18;;;;;;;139.93;13.63;;;10.80;95.40;;;;;;5075236;28;20029;-73
2021/10/07 03:03:44;;;;;;;196.40;17.25;;;10.80;95.40;;;;;;5074175;28;20404;-73
2021/10/07 03:06:10;;;;;;;122.22;13.73;;;10.80;95.40;;;;;;5074283;28;20032;-74
2021/10/07 03:08:35;;;;;;;246.07;17.65;;;10.80;95.50;;;;;;5075053;28;20449;-72
2021/10/07 03:11:01;;;;;;;183.85;15.98;;;10.80;95.50;;;;;;5060864;28;20528;-73
2021/10/07 03:13:29;;;;;;;93.10;12.60;;;10.80;95.50;;;;;;5076806;28;20047;-72
2021/10/07 03:15:55;;;;;;;95.40;11.55;;;10.80;95.40;;;;;;5073927;28;20246;-73
2021/10/07 03:18:20;;;;;;;120.78;13.60;;;10.80;95.40;;;;;;5073918;28;20560;-73
2021/10/07 03:20:46;;;;;;;117.63;11.90;;;10.80;95.30;;;;;;5079657;28;20034;-73
2021/10/07 03:23:11;;;;;;;95.50;12.50;;;10.80;95.30;;;;;;5090496;28;20267;-73
2021/10/07 03:25:37;;;;;;;90.15;11.30;;;10.70;95.30;;;;;;5087131;28;20040;-74
2021/10/07 03:28:03;;;;;;;59.30;9.68;;;10.60;95.20;;;;;;5086393;28;20119;-74
2021/10/07 03:30:29;;;;;;;113.32;10.82;;;10.60;95.10;;;;;;5074314;28;20028;-73
2021/10/07 03:32:54;;;;;;;89.78;9.65;;;10.50;95.00;;;;;;5073635;28;20031;-72
2021/10/07 03:35:20;;;;;;;35.28;8.80;;;10.50;94.90;;;;;;5073401;28;20035;-73
2021/10/07 03:37:46;;;;;;;65.15;9.32;;;10.50;95.00;;;;;;5073553;28;20021;-73
2021/10/07 03:40:12;;;;;;;49.05;8.63;;;10.50;95.00;;;;;;5073691;28;20025;-73
2021/10/07 03:42:38;;;;;;;47.03;8.35;;;10.40;94.90;;;;;;5073157;28;20017;-73
2021/10/07 03:45:05;;;;;;;34.03;7.72;;;10.50;94.90;;;;;;5073102;28;20385;-72
2021/10/07 03:47:31;;;;;;;30.67;7.97;;;10.40;94.80;;;;;;5055673;28;20457;-72
2021/10/07 03:49:57;;;;;;;39.70;8.02;;;10.40;94.80;;;;;;5077403;28;20020;-73
2021/10/07 03:52:24;;;;;;;37.25;7.80;;;10.40;94.70;;;;;;5083554;28;20016;-73
2021/10/07 03:54:50;;;;;;;46.03;8.77;;;10.40;94.70;;;;;;5086671;28;20052;-72
2021/10/07 03:57:16;;;;;;;32.75;7.78;;;10.40;94.70;;;;;;5074483;28;20534;-73
2021/10/07 03:59:41;;;;;;;31.30;7.68;;;10.30;94.60;;;;;;5073883;28;20021;-73
2021/10/07 04:02:07;;;;;;;34.85;7.72;;;10.40;94.60;;;;;;5073052;28;20492;-74
2021/10/07 04:04:32;;;;;;;36.30;7.78;;;10.30;94.60;;;;;;5072765;28;20378;-73
2021/10/07 04:06:58;;;;;;;35.47;8.23;;;10.30;94.70;;;;;;5055211;28;20070;-73
2021/10/07 04:09:23;;;;;;;92.90;10.25;;;10.30;94.70;;;;;;5073438;28;20052;-74
2021/10/07 04:11:49;;;;;;;78.57;10.13;;;10.30;94.70;;;;;;5072957;28;20029;-74
2021/10/07 04:14:15;;;;;;;256.77;15.88;;;10.30;94.70;;;;;;5072607;28;20493;-72
2021/10/07 04:16:40;;;;;;;197.18;14.38;;;10.30;94.80;;;;;;5072777;28;20027;-72
2021/10/07 04:19:06;;;;;;;180.70;13.50;;;10.30;94.90;;;;;;5072734;28;20051;-74
2021/10/07 04:21:31;;;;;;;124.30;11.90;;;10.30;95.00;;;;;;5072892;28;20021;-74
2021/10/07 04:23:57;;;;;;;158.18;12.05;;;10.30;95.00;;;;;;5072975;28;20035;-74
2021/10/07 04:26:23;;;;;;;165.57;13.23;;;10.30;95.00;;;;;;5073104;28;20020;-72
2021/10/07 04:28:48;;;;;;;45.50;8.63;;;10.30;95.10;;;;;;5072992;28;20082;-73
2021/10/07 04:31:14;;;;;;;108.57;9.70;;;10.20;95.00;;;;;;5088699;28;20025;-73
2021/10/07 04:33:39;;;;;;;89.10;10.45;;;10.20;95.00;;;;;;5072797;28;20500;-73
2021/10/07 04:36:05;;;;;;;81.28;9.55;;;10.30;95.00;;;;;;5073285;28;20025;-74
2021/10/07 04:38:31;;;;;;;69.10;8.00;;;10.20;95.00;;;;;;5087854;28;20492;-74
2021/10/07 04:40:56;;;;;;;29.80;7.32;;;10.20;95.00;;;;;;5073147;28;20039;-74
2021/10/07 04:43:22;;;;;;;36.17;6.57;;;10.20;94.90;;;;;;5072966;28;20051;-73
2021/10/07 04:45:50;;;;;;;36.13;6.25;;;10.20;94.90;;;;;;5072751;28;20427;-73
2021/10/07 04:48:15;;;;;;;22.85;6.30;;;10.10;94.70;;;;;;5072923;28;20031;-73
2021/10/07 04:50:41;;;;;;;31.52;5.85;;;10.10;94.70;;;;;;5055369;28;20111;-73
2021/10/07 04:53:07;;;;;;;18.65;5.57;;;10.10;94.70;;;;;;5072705;28;20020;-72
2021/10/07 04:55:32;;;;;;;23.35;5.18;;;10.00;94.50;;;;;;5072691;28;20380;-73
2021/10/07 04:57:58;;;;;;;14.40;5.07;;;10.00;94.50;;;;;;5073080;28;20025;-73
2021/10/07 05:00:24;;;;;;;11.65;5.50;;;9.90;94.30;;;;;;5093005;28;20342;-73
2021/10/07 05:02:49;;;;;;;7.05;5.28;;;9.90;94.20;;;;;;5083057;28;20025;-74
2021/10/07 05:05:15;;;;;;;19.70;5.63;;;9.80;94.20;;;;;;5076539;28;20032;-73
2021/10/07 05:07:43;;;;;;;10.52;4.70;;;9.80;94.20;;;;;;5077754;28;20107;-74
2021/10/07 05:10:09;;;;;;;14.07;4.47;;;9.80;94.20;;;;;;5089323;28;20080;-72
2021/10/07 05:12:35;;;;;;;11.50;4.22;;;9.80;94.20;;;;;;5089593;28;20034;-73
2021/10/07 05:15:01;;;;;;;6.57;4.13;;;9.80;94.10;;;;;;5077195;28;20072;-73
2021/10/07 05:17:26;;;;;;;5.88;4.30;;;9.70;94.00;;;;;;5081303;28;20033;-73
2021/10/07 05:19:52;;;;;;;6.72;4.60;;;;;;;;;;5076466;28;20027;-74
2021/10/07 05:22:18;;;;;;;7.18;4.30;;;9.60;93.70;;;;;;5076671;28;20225;-74
2021/10/07 05:24:44;;;;;;;6.82;4.28;;;9.60;93.90;;;;;;5058508;28;20044;-73
2021/10/07 05:27:09;;;;;;;7.72;4.38;;;9.50;93.90;;;;;;5058620;28;20029;-73
2021/10/07 05:29:35;;;;;;;4.90;3.10;;;9.50;94.00;;;;;;5075850;28;20031;-73
2021/10/07 05:32:00;;;;;;;5.40;3.88;;;9.40;93.90;;;;;;5058170;28;20072;-73
2021/10/07 05:34:26;;;;;;;7.85;4.05;;;9.40;93.80;;;;;;5075385;28;20500;-73
2021/10/07 05:36:52;;;;;;;8.70;4.20;;;9.30;93.90;;;;;;5075772;28;20024;-74
2021/10/07 05:39:17;;;;;;;6.85;3.78;;;9.40;93.90;;;;;;5081094;28;20120;-75
2021/10/07 05:41:43;;;;;;;7.25;3.97;;;9.30;94.00;;;;;;5085033;28;20021;-74
2021/10/07 05:44:10;;;;;;;5.53;3.63;;;9.30;94.00;;;;;;5082887;28;20077;-73
2021/10/07 05:46:37;;;;;;;8.85;3.97;;;9.30;94.00;;;;;;5076108;28;20107;-74
2021/10/07 05:49:04;;;;;;;6.68;3.83;;;9.30;93.90;;;;;;5058802;28;20021;-74
2021/10/07 05:51:30;;;;;;;8.02;3.85;;;9.20;93.90;;;;;;5076716;28;20017;-74
2021/10/07 05:53:55;;;;;;;7.43;4.40;;;9.20;93.90;;;;;;5078592;28;20043;-74
2021/10/07 05:56:21;;;;;;;6.00;3.90;;;9.20;93.90;;;;;;5076520;28;20024;-72
2021/10/07 05:58:46;;;;;;;10.07;5.53;;;9.10;93.90;;;;;;5075488;28;20020;-73
2021/10/07 06:01:12;;;;;;;11.73;7.32;;;9.10;93.90;;;;;;5091213;28;20031;-73
2021/10/07 06:03:38;;;;;;;13.15;9.02;;;9.10;93.90;;;;;;5075739;28;20143;-74
2021/10/07 06:06:03;;;;;;;13.88;9.65;;;9.10;93.90;;;;;;5075297;28;20055;-73
2021/10/07 06:08:29;;;;;;;12.38;8.45;;;9.10;93.90;;;;;;5075157;28;20024;-74
2021/10/07 06:10:54;;;;;;;11.23;8.10;;;9.10;94.00;;;;;;5075177;28;20025;-74
2021/10/07 06:13:20;;;;;;;15.50;9.93;;;9.10;94.20;;;;;;5074872;28;20516;-73
2021/10/07 06:15:45;;;;;;;18.15;8.27;;;9.10;94.20;;;;;;5056117;28;20380;-74
2021/10/07 06:18:11;;;;;;;24.67;10.05;;;9.20;94.30;;;;;;5074488;28;20021;-73
2021/10/07 06:20:37;;;;;;;57.97;11.05;;;9.20;94.30;;;;;;5074846;28;20028;-73
2021/10/07 06:23:04;;;;;;;43.42;11.57;;;9.30;94.60;;;;;;5074907;28;20094;-73
2021/10/07 06:25:30;;;;;;;28.75;12.57;;;9.30;94.70;;;;;;5074913;28;20461;-74
2021/10/07 06:27:56;;;;;;;53.33;14.27;;;9.30;94.70;;;;;;5074872;28;20032;-74
2021/10/07 06:30:22;;;;;;;67.78;11.38;;;9.40;94.80;;;;;;5074077;28;20029;-73
2021/10/07 06:32:49;;;;;;;73.10;11.80;;;9.40;94.80;;;;;;5075012;28;20031;-74
2021/10/07 06:35:16;;;;;;;84.55;12.98;;;9.50;94.90;;;;;;5074815;28;20476;-73
2021/10/07 06:37:42;;;;;;;42.38;9.35;;;9.50;94.90;;;;;;5074799;28;20469;-74
2021/10/07 06:40:09;;;;;;;19.70;7.85;;;9.60;95.00;;;;;;5057239;28;20031;-73
2021/10/07 06:42:35;;;;;;;31.88;8.23;;;9.60;95.00;;;;;;5074640;28;20032;-74
2021/10/07 06:45:04;;;;;;;60.08;10.85;;;9.70;95.00;;;;;;5075264;28;20448;-75
2021/10/07 06:47:30;;;;;;;30.27;8.05;;;9.70;95.00;;;;;;5075030;28;20036;-74
2021/10/07 06:49:56;;;;;;;3.72;1.90;;;9.80;95.00;;;;;;5056978;28;20021;-73
2021/10/07 06:52:22;;;;;;;113.93;9.85;;;9.80;95.20;;;;;;5056813;28;20059;-73
2021/10/07 06:54:47;;;;;;;116.30;9.73;;;10.00;95.30;;;;;;5074936;28;20031;-74
2021/10/07 06:57:13;;;;;;;183.93;12.00;;;10.10;95.00;;;;;;5059768;28;20063;-74
2021/10/07 06:59:38;;;;;;;108.18;11.00;;;10.10;94.60;;;;;;5086882;28;20089;-73
2021/10/07 07:02:05;;;;;;;114.35;10.35;;;10.10;94.40;;;;;;5066106;28;20025;-72
2021/10/07 07:04:31;;;;;;;134.95;11.43;;;10.10;94.30;;;;;;5074498;28;20037;-73
2021/10/07 07:06:56;;;;;;;133.60;14.25;;;10.20;94.40;;;;;;5080406;28;20032;-75
2021/10/07 07:09:22;;;;;;;90.30;11.05;;;10.20;94.30;;;;;;5056490;28;20031;-74
2021/10/07 07:11:48;;;;;;;107.95;12.65;;;10.30;94.30;;;;;;5074280;28;20020;-73
2021/10/07 07:14:13;;;;;;;32.42;8.43;;;10.30;94.30;;;;;;5074008;28;20047;-74
2021/10/07 07:16:39;;;;;;;79.72;10.23;;;10.30;94.20;;;;;;5073913;28;20070;-74
2021/10/07 07:19:04;;;;;;;88.65;12.35;;;10.30;94.10;;;;;;5074422;28;20031;-73
2021/10/07 07:21:33;;;;;;;52.30;9.68;;;10.40;94.30;;;;;;5074323;28;20063;-74
2021/10/07 07:24:00;;;;;;;67.80;12.00;;;10.40;94.30;;;;;;5074250;28;20032;-74
2021/10/07 07:26:27;;;;;;;166.35;15.40;;;10.50;94.30;;;;;;5060960;28;20020;-74
2021/10/07 07:28:53;;;;;;;243.23;18.08;;;10.50;94.40;;;;;;5084194;28;20035;-73
2021/10/07 07:31:20;;;;;;;100.97;13.40;;;10.60;94.40;;;;;;5085563;28;20361;-74
2021/10/07 07:33:46;;;;;;;91.32;12.77;;;10.60;94.30;;;;;;5057011;28;20025;-74
2021/10/07 07:36:16;;;;;;;15.13;7.32;;;10.70;94.40;;;;;;5073863;28;20025;-74
2021/10/07 07:38:43;;;;;;;20.00;9.40;;;10.70;94.30;;;;;;5073778;28;20055;-75
2021/10/07 07:41:12;;;;;;;127.53;14.13;;;10.80;94.40;;;;;;5073768;28;20166;-74
2021/10/07 07:43:39;;;;;;;209.45;17.23;;;10.90;94.40;;;;;;5073383;28;20055;-74
2021/10/07 07:46:04;;;;;;;81.53;12.40;;;10.90;94.30;;;;;;5073692;28;20031;-74
2021/10/07 07:48:31;;;;;;;91.57;13.43;;;10.90;94.30;;;;;;5073870;28;20021;-74
2021/10/07 07:50:56;;;;;;;160.50;15.07;;;11.00;94.20;;;;;;5074162;28;20021;-74
2021/10/07 07:53:22;;;;;;;168.15;15.40;;;11.10;94.20;;;;;;5073512;28;20036;-73
2021/10/07 07:55:48;;;;;;;89.18;13.82;;;11.10;93.90;;;;;;5073856;28;20077;-74
2021/10/07 07:58:14;;;;;;;171.30;16.60;;;11.10;93.80;;;;;;5055955;28;20381;-74
2021/10/07 08:00:40;;;;;;;176.32;16.55;;;11.20;93.90;;;;;;5073204;28;20036;-73
2021/10/07 08:03:06;;;;;;;108.18;14.23;;;11.20;93.80;;;;;;5073548;28;20028;-74
2021/10/07 08:05:32;;;;;;;23.52;9.57;;;11.20;93.70;;;;;;5072931;28;20044;-74
2021/10/07 08:07:58;;;;;;;139.38;15.20;;;11.30;93.60;;;;;;5073372;28;20032;-74
2021/10/07 08:10:24;;;;;;;41.90;12.18;;;11.30;93.60;;;;;;5055280;28;20074;-74
2021/10/07 08:12:50;;;;;;;87.22;15.15;;;11.30;93.40;;;;;;5055286;28;20024;-74
2021/10/07 08:15:16;;;;;;;145.05;15.55;;;11.20;93.50;;;;;;5073372;28;20048;-74
2021/10/07 08:17:42;;;;;;;69.60;13.10;;;11.30;93.50;;;;;;5073008;28;20024;-74
2021/10/07 08:20:11;;;;;;;54.88;12.55;;;11.30;93.60;;;;;;5055186;28;20083;-74
2021/10/07 08:22:38;;;;;;;19.20;8.50;;;11.30;93.60;;;;;;5073320;28;20017;-74
2021/10/07 08:25:05;;;;;;;17.00;7.32;;;11.30;93.60;;;;;;5073658;28;20032;-73
2021/10/07 08:27:30;;;;;;;88.07;12.00;;;11.30;93.60;;;;;;5072851;28;20031;-73
2021/10/07 08:29:56;;;;;;;22.15;9.48;;;11.30;93.60;;;;;;5073484;28;20103;-73
2021/10/07 08:32:23;;;;;;;45.22;12.70;;;11.30;93.60;;;;;;5073789;28;20173;-74
2021/10/07 08:34:48;;;;;;;18.80;9.80;;;11.40;93.80;;;;;;5074310;28;20049;-74
2021/10/07 08:37:14;;;;;;;69.63;12.60;;;11.50;93.70;;;;;;5056529;28;20024;-74
2021/10/07 08:39:40;;;;;;;25.33;9.15;;;11.50;93.60;;;;;;5054378;28;20064;-74
2021/10/07 08:42:06;;;;;;;41.75;11.05;;;11.50;93.50;;;;;;5073274;28;20273;-74
2021/10/07 08:44:32;;;;;;;81.70;14.25;;;11.50;93.50;;;;;;5055598;28;20461;-74
2021/10/07 08:46:58;;;;;;;67.35;13.27;;;11.60;93.90;;;;;;5084260;28;20031;-73
2021/10/07 08:49:27;;;;;;;30.08;12.68;;;11.60;93.80;;;;;;5067571;28;20350;-74
2021/10/07 08:51:53;;;;;;;62.35;12.90;;;11.80;93.70;;;;;;5073687;28;20009;-73
2021/10/07 08:54:19;;;;;;;113.60;16.40;;;11.80;93.60;;;;;;5062612;28;20054;-74
2021/10/07 08:56:45;;;;;;;65.20;13.85;;;11.90;93.30;;;;;;5073866;28;20025;-74
2021/10/07 08:59:11;;;;;;;91.28;15.45;;;11.90;93.30;;;;;;5072816;28;20459;-74
2021/10/07 09:01:41;;;;;;;56.38;16.67;;;11.90;93.50;;;;;;5072604;28;20049;-74
2021/10/07 09:04:22;;;;;;;30.88;13.07;;;12.00;93.70;;;;;;5055373;28;20036;-73
2021/10/07 09:06:51;;;;;;;87.80;15.98;;;12.10;93.50;;;;;;5077660;28;20024;-74
2021/10/07 09:09:17;;;;;;;62.97;14.43;;;12.20;93.50;;;;;;5069508;28;20092;-74
2021/10/07 09:11:50;;;;;;;41.28;14.18;;;12.30;93.50;;;;;;5073396;28;20028;-74
2021/10/07 09:14:18;;;;;;;25.50;15.80;;;12.40;93.20;;;;;;5063062;28;20035;-72
2021/10/07 09:16:46;;;;;;;24.02;14.48;;;12.40;93.40;;;;;;5066389;28;20001;-74
2021/10/07 09:19:21;;;;;;;58.58;15.85;;;12.50;93.60;;;;;;5081030;28;20032;-74
2021/10/07 09:21:49;;;;;;;30.50;15.02;;;12.70;93.70;;;;;;5074407;28;20021;-75
2021/10/07 09:24:29;;;;;;;16.88;11.48;;;12.70;93.40;;;;;;5054605;28;20137;-74
2021/10/07 09:27:07;;;;;;;15.60;9.90;;;12.80;93.30;;;;;;5072302;28;20021;-75
2021/10/07 09:29:57;;;;;;;17.67;11.80;;;12.90;93.10;;;;;;5054508;28;20027;-75
2021/10/07 09:32:44;;;;;;;24.95;16.80;;;12.90;93.20;;;;;;5072282;28;20028;-74
2021/10/07 09:35:15;;;;;;;23.73;16.08;;;13.00;93.00;;;;;;5072515;28;20021;-74
2021/10/07 09:37:43;;;;;;;18.20;12.02;;;13.10;92.90;;;;;;5072335;28;20028;-74
2021/10/07 09:40:13;;;;;;;29.55;17.92;;;13.30;92.70;;;;;;5072568;28;20020;-73
2021/10/07 09:42:48;;;;;;;33.35;16.13;;;13.30;92.50;;;;;;5054672;28;20116;-73
2021/10/07 09:45:26;;;;;;;28.88;14.93;;;13.30;92.50;;;;;;5072363;28;20465;-74
2021/10/07 09:48:00;;;;;;;24.90;14.98;;;13.30;92.30;;;;;;5072461;28;20025;-76
2021/10/07 09:50:39;;;;;;;33.63;20.13;;;13.30;92.20;;;;;;5073210;28;20075;-75
2021/10/07 09:53:13;;;;;;;29.33;17.77;;;13.40;92.20;;;;;;5076444;28;20052;-75
2021/10/07 09:55:42;;;;;;;32.63;18.08;;;13.40;92.30;;;;;;5076062;28;20285;-73
2021/10/07 09:58:24;;;;;;;35.78;19.98;;;13.30;92.00;;;;;;5057572;28;20028;-75
2021/10/07 10:00:55;;;;;;;29.95;16.92;;;13.20;92.20;;;;;;5075742;28;20028;-75
2021/10/07 10:03:22;;;;;;;48.90;23.48;;;13.10;92.20;;;;;;5074946;28;20115;-74
2021/10/07 10:05:52;;;;;;;47.72;23.45;;;13.10;92.50;;;;;;5075300;28;20028;-74
2021/10/07 10:08:19;;;;;;;38.90;18.60;;;13.10;92.80;;;;;;5075001;28;20024;-73
2021/10/07 10:10:46;;;;;;;24.52;13.32;;;13.10;92.80;;;;;;5074938;28;20028;-74
2021/10/07 10:13:14;;;;;;;31.80;17.25;;;13.10;92.80;;;;;;5075078;28;20086;-74
2021/10/07 10:15:40;;;;;;;35.42;21.15;;;13.10;92.80;;;;;;5074917;28;20469;-74
2021/10/07 10:18:09;;;;;;;35.10;22.88;;;13.10;92.80;;;;;;5075185;28;20078;-74
2021/10/07 10:20:39;;;;;;;26.65;16.33;;;13.10;92.70;;;;;;5075045;28;20016;-74
2021/10/07 10:23:14;;;;;;;33.10;19.90;;;13.10;92.40;;;;;;5057196;28;20381;-73
2021/10/07 10:26:11;;;;;;;22.63;14.57;;;13.20;92.50;;;;;;5074760;28;20089;-73
2021/10/07 10:28:45;;;;;;;16.67;10.52;;;13.20;92.10;;;;;;5075000;28;20024;-73
2021/10/07 10:31:14;;;;;;;23.48;16.08;;;13.20;92.20;;;;;;5075314;28;20353;-75
2021/10/07 10:33:44;;;;;;;28.15;20.23;;;13.30;92.20;;;;;;5076026;28;20051;-74
2021/10/07 10:36:25;;;;;;;26.08;18.13;;;13.40;92.20;;;;;;5090489;28;20028;-74
2021/10/07 10:39:14;;;;;;;32.67;20.48;;;13.40;92.00;;;;;;5062368;28;20118;-74
2021/10/07 10:42:02;;;;;;;30.00;19.73;;;13.40;92.10;;;;;;5071873;28;20043;-73
2021/10/07 10:44:28;;;;;;;28.20;18.65;;;13.40;92.00;;;;;;5074341;28;20028;-75
2021/10/07 10:47:06;;;;;;;22.77;15.50;;;13.50;92.40;;;;;;5056128;28;20025;-74
2021/10/07 10:49:40;;;;;;;22.48;16.25;;;13.50;92.40;;;;;;5074080;28;20042;-74
2021/10/07 10:52:23;;;;;;;16.83;12.98;;;13.60;91.90;;;;;;5056113;28;20073;-74
2021/10/07 10:54:59;;;;;;;11.05;7.40;;;13.70;92.30;;;;;;5074066;28;20099;-74
2021/10/07 10:57:44;;;;;;;16.08;11.63;;;13.70;91.10;;;;;;5073968;28;20032;-74
2021/10/07 11:00:25;;;;;;;24.40;17.23;;;13.70;91.50;;;;;;5074467;28;20045;-72
2021/10/07 11:02:55;;;;;;;15.75;11.00;;;13.70;91.50;;;;;;5086834;28;20040;-74
2021/10/07 11:05:29;;;;;;;22.23;14.80;;;13.90;91.50;;;;;;5072584;28;20028;-74
2021/10/07 11:08:21;;;;;;;16.73;11.80;;;13.90;91.20;;;;;;5086519;28;20020;-73
2021/10/07 11:10:51;;;;;;;19.50;13.65;;;13.80;90.70;;;;;;5068962;28;20036;-73
2021/10/07 11:13:17;;;;;;;;;;;13.80;91.10;;;;;;5074685;28;20075;-75
2021/10/07 11:15:52;;;;;;;26.65;18.75;;;13.70;91.00;;;;;;5056808;28;20370;-74
2021/10/07 11:18:18;;;;;;;24.50;17.75;;;13.70;91.30;;;;;;5075154;28;20146;-74
2021/10/07 11:20:44;;;;;;;27.80;19.92;;;13.70;91.50;;;;;;5074056;28;20115;-74
2021/10/07 11:23:17;;;;;;;24.33;15.95;;;13.70;91.30;;;;;;5073862;28;20017;-75
2021/10/07 11:25:53;;;;;;;26.55;18.80;;;13.60;91.30;;;;;;5073274;28;20389;-74
2021/10/07 11:28:28;;;;;;;31.25;20.27;;;13.60;91.40;;;;;;5073643;28;20138;-74
2021/10/07 11:31:06;;;;;;;38.47;26.05;;;13.70;91.70;;;;;;5073776;28;20024;-74
2021/10/07 11:33:32;;;;;;;35.47;22.48;;;13.60;91.70;;;;;;5073432;28;20028;-75
2021/10/07 11:36:06;;;;;;;26.85;18.85;;;13.60;91.60;;;;;;5073618;28;20068;-75
2021/10/07 11:38:32;;;;;;;21.30;13.15;;;13.60;91.70;;;;;;5072946;28;20036;-74
2021/10/07 11:41:00;;;;;;;22.50;15.70;;;13.60;91.40;;;;;;5073608;28;20024;-74
2021/10/07 11:43:31;;;;;;;21.10;14.75;;;13.60;91.60;;;;;;5055117;28;20028;-74
2021/10/07 11:46:00;;;;;;;19.00;13.45;;;13.70;91.60;;;;;;5073600;28;20039;-74
2021/10/07 11:48:26;;;;;;;15.95;11.43;;;13.70;91.00;;;;;;5072720;28;20016;-75
2021/10/07 11:50:53;;;;;;;19.35;14.85;;;13.70;90.90;;;;;;5073371;28;20465;-75
2021/10/07 11:53:32;;;;;;;26.70;19.25;;;13.70;90.90;;;;;;5054716;28;20025;-74
2021/10/07 11:56:01;;;;;;;17.75;13.10;;;13.70;90.80;;;;;;5072760;28;20115;-74
2021/10/07 11:58:28;;;;;;;28.08;20.85;;;13.70;91.00;;;;;;5054493;28;20389;-73
2021/10/07 12:00:55;;;;;;;30.67;21.30;;;13.70;91.20;;;;;;5072669;28;20074;-73
2021/10/07 12:03:30;;;;;;;24.58;17.85;;;13.80;91.40;;;;;;5054600;28;20516;-74
2021/10/07 12:06:03;;;;;;;28.20;20.08;;;13.80;91.30;;;;;;5072766;28;20028;-74
2021/10/07 12:08:31;;;;;;;35.42;25.08;;;13.90;91.10;;;;;;5072751;28;20097;-74
2021/10/07 12:11:03;;;;;;;30.45;22.23;;;14.00;91.30;;;;;;5054889;28;20020;-75
2021/10/07 12:13:31;;;;;;;27.65;20.55;;;14.10;91.30;;;;;;5073018;28;20028;-76
2021/10/07 12:16:05;;;;;;;25.15;17.33;;;14.10;91.40;;;;;;5069518;28;20135;-74
2021/10/07 12:18:34;;;;;;;29.70;20.45;;;14.20;90.30;;;;;;5054802;28;20377;-76
2021/10/07 12:21:02;;;;;;;26.20;19.30;;;14.40;89.60;;;;;;5058702;28;20085;-75
2021/10/07 12:23:30;;;;;;;19.13;13.40;;;14.40;89.10;;;;;;5085570;28;20048;-75
2021/10/07 12:25:59;;;;;;;25.45;18.00;;;14.50;88.80;;;;;;5074131;28;20521;-74
2021/10/07 12:28:26;;;;;;;35.33;25.45;;;14.50;89.30;;;;;;5087686;28;20000;-74
2021/10/07 12:31:02;;;;;;;26.10;18.92;;;14.50;88.90;;;;;;5080602;28;20076;-74
2021/10/07 12:33:31;;;;;;;26.42;19.65;;;14.50;88.50;;;;;;5054491;28;20036;-75
2021/10/07 12:36:03;;;;;;;28.90;19.63;;;14.60;89.00;;;;;;5054574;28;20043;-75
2021/10/07 12:38:45;;;;;;;25.52;18.13;;;14.70;88.90;;;;;;5072097;28;20461;-74
2021/10/07 12:41:10;;;;;;;24.17;18.33;;;14.70;88.60;;;;;;5054347;28;20472;-75